VOE5VB GMMX-LEBB
Flight info
| Callsign | VOE5VB |
|---|---|
| Flight time | 1h 52m |
| Altitude | 36000 |
| Route | OBOGA UG850 VALBA UZ801 TOLSI UG5 KORIS DCT SVL DCT HIJ DCT RUSEM DCT SOTUK DCT USOKO DCT TLD DCT SIE DCT EDIGO DCT DGO |
| Aircraft | A320/M-SDE3FGHIRWY/LB1 |
Departure
| Time | 2026-04-28 15:35 |
|---|---|
| Airport | Marrakesh Menara Airport (GMMX) |
Arrival
| Time | 2026-04-28 17:27 |
|---|---|
| Airport | Bilbao Airport (LEBB) |
| Time | Latitude | Longitude | Altitude | Speed | Heading |
|---|---|---|---|---|---|
| 2026-04-28 14:39 | 31.60312 | -8.02591 | 1550 ft | 0 kts | 186° |
| 2026-04-28 15:27 | 31.60313 | -8.02591 | 1549 ft | 2 kts | 186° |
| 2026-04-28 15:27 | 31.60333 | -8.02588 | 1549 ft | 3 kts | 185° |
| 2026-04-28 15:27 | 31.60353 | -8.02586 | 1549 ft | 3 kts | 184° |
| 2026-04-28 15:28 | 31.60374 | -8.02585 | 1549 ft | 3 kts | 181° |
| 2026-04-28 15:28 | 31.60394 | -8.02585 | 1549 ft | 3 kts | 175° |
| 2026-04-28 15:28 | 31.60414 | -8.02588 | 1549 ft | 3 kts | 154° |
| 2026-04-28 15:28 | 31.60427 | -8.02600 | 1549 ft | 2 kts | 98° |
| 2026-04-28 15:29 | 31.60427 | -8.02601 | 1549 ft | 0 kts | 96° |
| 2026-04-28 15:31 | 31.60425 | -8.02577 | 1549 ft | 9 kts | 96° |
| 2026-04-28 15:31 | 31.60418 | -8.02507 | 1549 ft | 8 kts | 96° |
| 2026-04-28 15:31 | 31.60413 | -8.02456 | 1549 ft | 9 kts | 96° |
| 2026-04-28 15:31 | 31.60406 | -8.02361 | 1549 ft | 12 kts | 95° |
| 2026-04-28 15:32 | 31.60399 | -8.02274 | 1549 ft | 10 kts | 95° |
| 2026-04-28 15:32 | 31.60395 | -8.02225 | 1549 ft | 9 kts | 96° |
| 2026-04-28 15:32 | 31.60386 | -8.02143 | 1549 ft | 6 kts | 98° |
| 2026-04-28 15:32 | 31.60381 | -8.02094 | 1549 ft | 8 kts | 96° |
| 2026-04-28 15:33 | 31.60407 | -8.02040 | 1549 ft | 8 kts | 18° |
| 2026-04-28 15:33 | 31.60455 | -8.02033 | 1549 ft | 8 kts | 7° |
| 2026-04-28 15:33 | 31.60525 | -8.02025 | 1550 ft | 9 kts | 1° |
| 2026-04-28 15:33 | 31.60552 | -8.02075 | 1549 ft | 7 kts | 276° |
| 2026-04-28 15:34 | 31.60562 | -8.02187 | 1550 ft | 37 kts | 276° |
| 2026-04-28 15:34 | 31.60613 | -8.02771 | 1549 ft | 104 kts | 275° |
| 2026-04-28 15:34 | 31.60708 | -8.03840 | 1538 ft | 157 kts | 276° |
| 2026-04-28 15:34 | 31.60823 | -8.05206 | 1939 ft | 170 kts | 275° |
| 2026-04-28 15:35 | 31.60948 | -8.06589 | 2658 ft | 171 kts | 276° |
| 2026-04-28 15:35 | 31.61211 | -8.09425 | 3686 ft | 188 kts | 276° |
| 2026-04-28 15:35 | 31.61358 | -8.11067 | 3946 ft | 211 kts | 276° |
| 2026-04-28 15:36 | 31.61519 | -8.12880 | 4203 ft | 236 kts | 276° |
| 2026-04-28 15:36 | 31.61691 | -8.14839 | 4878 ft | 245 kts | 276° |
| 2026-04-28 15:36 | 31.62056 | -8.16791 | 5653 ft | 248 kts | 294° |
| 2026-04-28 15:36 | 31.63021 | -8.18474 | 6423 ft | 252 kts | 315° |
| 2026-04-28 15:37 | 31.64452 | -8.19629 | 7133 ft | 256 kts | 336° |
| 2026-04-28 15:37 | 31.66192 | -8.20109 | 7838 ft | 261 kts | 358° |
| 2026-04-28 15:37 | 31.67998 | -8.19777 | 8556 ft | 266 kts | 21° |
| 2026-04-28 15:37 | 31.69088 | -8.19107 | 9028 ft | 269 kts | 37° |
| 2026-04-28 15:38 | 31.70373 | -8.17508 | 9771 ft | 273 kts | 60° |
| 2026-04-28 15:38 | 31.71028 | -8.15422 | 10406 ft | 275 kts | 82° |
| 2026-04-28 15:38 | 31.71307 | -8.13195 | 11082 ft | 277 kts | 83° |
| 2026-04-28 15:38 | 31.71785 | -8.10937 | 11426 ft | 298 kts | 65° |
| 2026-04-28 15:39 | 31.72941 | -8.08801 | 11624 ft | 322 kts | 56° |
| 2026-04-28 15:39 | 31.74278 | -8.06569 | 11785 ft | 346 kts | 55° |
| 2026-04-28 15:39 | 31.75715 | -8.04196 | 12009 ft | 364 kts | 55° |
| 2026-04-28 15:39 | 31.77200 | -8.01754 | 12547 ft | 371 kts | 55° |
| 2026-04-28 15:40 | 31.78707 | -7.99268 | 13170 ft | 375 kts | 56° |
| 2026-04-28 15:40 | 31.80226 | -7.96750 | 13799 ft | 380 kts | 56° |
| 2026-04-28 15:40 | 31.81757 | -7.94199 | 14352 ft | 384 kts | 56° |
| 2026-04-28 15:40 | 31.83299 | -7.91616 | 14907 ft | 388 kts | 56° |
| 2026-04-28 15:41 | 31.84858 | -7.89001 | 15465 ft | 392 kts | 56° |
| 2026-04-28 15:41 | 31.86429 | -7.86365 | 16010 ft | 396 kts | 56° |
| 2026-04-28 15:41 | 31.88020 | -7.83694 | 16556 ft | 400 kts | 56° |
| 2026-04-28 15:41 | 31.89623 | -7.80997 | 17098 ft | 404 kts | 55° |
| 2026-04-28 15:42 | 31.91263 | -7.78238 | 17654 ft | 408 kts | 55° |
| 2026-04-28 15:42 | 31.92880 | -7.75519 | 18191 ft | 412 kts | 55° |
| 2026-04-28 15:42 | 31.94552 | -7.72707 | 18676 ft | 416 kts | 55° |
| 2026-04-28 15:42 | 31.96219 | -7.69905 | 19153 ft | 419 kts | 55° |
| 2026-04-28 15:43 | 31.97898 | -7.67084 | 19651 ft | 423 kts | 55° |
| 2026-04-28 15:43 | 31.99591 | -7.64237 | 20120 ft | 426 kts | 55° |
| 2026-04-28 15:43 | 32.01293 | -7.61373 | 20605 ft | 429 kts | 55° |
| 2026-04-28 15:43 | 32.03008 | -7.58482 | 21068 ft | 432 kts | 55° |
| 2026-04-28 15:44 | 32.04868 | -7.55693 | 21521 ft | 434 kts | 45° |
| 2026-04-28 15:44 | 32.07145 | -7.53356 | 21965 ft | 436 kts | 34° |
| 2026-04-28 15:44 | 32.09776 | -7.51585 | 22400 ft | 437 kts | 22° |
| 2026-04-28 15:44 | 32.12654 | -7.50454 | 22836 ft | 437 kts | 10° |
| 2026-04-28 15:45 | 32.15666 | -7.50007 | 23251 ft | 436 kts | 359° |
| 2026-04-28 15:45 | 32.18707 | -7.50023 | 23628 ft | 438 kts | 357° |
| 2026-04-28 15:45 | 32.21767 | -7.50049 | 23973 ft | 440 kts | 357° |
| 2026-04-28 15:45 | 32.24834 | -7.50072 | 24314 ft | 442 kts | 357° |
| 2026-04-28 15:46 | 32.27921 | -7.50089 | 24644 ft | 445 kts | 357° |
| 2026-04-28 15:46 | 32.31021 | -7.50106 | 24964 ft | 447 kts | 357° |
| 2026-04-28 15:46 | 32.34135 | -7.50123 | 25288 ft | 449 kts | 357° |
| 2026-04-28 15:46 | 32.37269 | -7.50137 | 25594 ft | 451 kts | 357° |
| 2026-04-28 15:47 | 32.40408 | -7.50153 | 25912 ft | 453 kts | 358° |
| 2026-04-28 15:47 | 32.43566 | -7.50173 | 26222 ft | 455 kts | 358° |
| 2026-04-28 15:47 | 32.46731 | -7.50196 | 26522 ft | 456 kts | 358° |
| 2026-04-28 15:47 | 32.49916 | -7.50221 | 26822 ft | 458 kts | 358° |
| 2026-04-28 15:48 | 32.53113 | -7.50246 | 27115 ft | 460 kts | 358° |
| 2026-04-28 15:48 | 32.56324 | -7.50273 | 27399 ft | 462 kts | 358° |
| 2026-04-28 15:48 | 32.59540 | -7.50297 | 27669 ft | 464 kts | 358° |
| 2026-04-28 15:48 | 32.62777 | -7.50319 | 27942 ft | 466 kts | 358° |
| 2026-04-28 15:49 | 32.66021 | -7.50339 | 28205 ft | 467 kts | 358° |
| 2026-04-28 15:49 | 32.69276 | -7.50363 | 28458 ft | 469 kts | 358° |
| 2026-04-28 15:49 | 32.72543 | -7.50383 | 28697 ft | 470 kts | 358° |
| 2026-04-28 15:49 | 32.75820 | -7.50402 | 28938 ft | 472 kts | 358° |
| 2026-04-28 15:50 | 32.79111 | -7.50425 | 29167 ft | 473 kts | 358° |
| 2026-04-28 15:50 | 32.82452 | -7.50447 | 29428 ft | 473 kts | 358° |
| 2026-04-28 15:50 | 32.85742 | -7.50466 | 29761 ft | 472 kts | 358° |
| 2026-04-28 15:50 | 32.89018 | -7.50485 | 30057 ft | 472 kts | 358° |
| 2026-04-28 15:51 | 32.92299 | -7.50504 | 30322 ft | 471 kts | 358° |
| 2026-04-28 15:51 | 32.95573 | -7.50524 | 30594 ft | 470 kts | 358° |
| 2026-04-28 15:51 | 32.98840 | -7.50542 | 30859 ft | 469 kts | 358° |
| 2026-04-28 15:51 | 33.02089 | -7.50560 | 31126 ft | 469 kts | 358° |
| 2026-04-28 15:52 | 33.05359 | -7.50581 | 31398 ft | 468 kts | 358° |
| 2026-04-28 15:52 | 33.08614 | -7.50604 | 31670 ft | 467 kts | 359° |
| 2026-04-28 15:52 | 33.11858 | -7.50337 | 31935 ft | 468 kts | 8° |
| 2026-04-28 15:52 | 33.14997 | -7.49492 | 32192 ft | 469 kts | 14° |
| 2026-04-28 15:53 | 33.18178 | -7.48435 | 32453 ft | 468 kts | 14° |
| 2026-04-28 15:53 | 33.21322 | -7.47410 | 32715 ft | 468 kts | 14° |
| 2026-04-28 15:53 | 33.24463 | -7.46397 | 32980 ft | 467 kts | 14° |
| 2026-04-28 15:53 | 33.27599 | -7.45390 | 33231 ft | 467 kts | 14° |
| 2026-04-28 15:54 | 33.30739 | -7.44379 | 33487 ft | 467 kts | 14° |
| 2026-04-28 15:54 | 33.33864 | -7.43366 | 33752 ft | 466 kts | 14° |
| 2026-04-28 15:54 | 33.36995 | -7.42346 | 33994 ft | 466 kts | 14° |
| 2026-04-28 15:54 | 33.40124 | -7.41323 | 34205 ft | 466 kts | 14° |
| 2026-04-28 15:55 | 33.43243 | -7.40300 | 34407 ft | 466 kts | 14° |
| 2026-04-28 15:55 | 33.46367 | -7.39275 | 34613 ft | 465 kts | 14° |
| 2026-04-28 15:55 | 33.49490 | -7.38251 | 34796 ft | 465 kts | 14° |
| 2026-04-28 15:55 | 33.52617 | -7.37224 | 35007 ft | 465 kts | 14° |
| 2026-04-28 15:56 | 33.55733 | -7.36204 | 35188 ft | 465 kts | 13° |
| 2026-04-28 15:56 | 33.58859 | -7.35178 | 35380 ft | 465 kts | 14° |
| 2026-04-28 15:56 | 33.61977 | -7.34151 | 35560 ft | 465 kts | 14° |
| 2026-04-28 15:56 | 33.65091 | -7.33125 | 35728 ft | 465 kts | 13° |
| 2026-04-28 15:57 | 33.68210 | -7.32098 | 35884 ft | 465 kts | 14° |
| 2026-04-28 15:57 | 33.71334 | -7.31067 | 35921 ft | 466 kts | 14° |
| 2026-04-28 15:57 | 33.77591 | -7.29002 | 35922 ft | 467 kts | 14° |
| 2026-04-28 15:58 | 33.83894 | -7.26918 | 35915 ft | 466 kts | 14° |
| 2026-04-28 15:58 | 33.90155 | -7.24855 | 35915 ft | 466 kts | 14° |
| 2026-04-28 15:59 | 33.95354 | -7.23141 | 35916 ft | 466 kts | 14° |
| 2026-04-28 15:59 | 34.02669 | -7.20712 | 35917 ft | 467 kts | 14° |
| 2026-04-28 16:00 | 34.08931 | -7.18628 | 35919 ft | 467 kts | 14° |
| 2026-04-28 16:00 | 34.15197 | -7.16542 | 35927 ft | 467 kts | 14° |
| 2026-04-28 16:01 | 34.21464 | -7.14445 | 35927 ft | 467 kts | 14° |
| 2026-04-28 16:01 | 34.27728 | -7.12352 | 35924 ft | 467 kts | 15° |
| 2026-04-28 16:02 | 34.33994 | -7.10264 | 35922 ft | 467 kts | 15° |
| 2026-04-28 16:02 | 34.40270 | -7.08166 | 35924 ft | 467 kts | 15° |
| 2026-04-28 16:03 | 34.46532 | -7.06059 | 35917 ft | 467 kts | 15° |
| 2026-04-28 16:03 | 34.52801 | -7.03955 | 35919 ft | 467 kts | 15° |
| 2026-04-28 16:04 | 34.59018 | -7.01836 | 36016 ft | 462 kts | 19° |
| 2026-04-28 16:04 | 34.64850 | -6.98589 | 36032 ft | 461 kts | 27° |
| 2026-04-28 16:05 | 34.70572 | -6.95074 | 36033 ft | 460 kts | 27° |
| 2026-04-28 16:05 | 34.76327 | -6.91540 | 36032 ft | 460 kts | 26° |
| 2026-04-28 16:06 | 34.82038 | -6.88033 | 36033 ft | 460 kts | 26° |
| 2026-04-28 16:06 | 34.87742 | -6.84525 | 36030 ft | 459 kts | 27° |
| 2026-04-28 16:07 | 34.93444 | -6.81004 | 36029 ft | 459 kts | 27° |
| 2026-04-28 16:08 | 35.01991 | -6.75728 | 36029 ft | 459 kts | 27° |
| 2026-04-28 16:08 | 35.07687 | -6.72199 | 36029 ft | 459 kts | 27° |
| 2026-04-28 16:09 | 35.16225 | -6.66871 | 36028 ft | 459 kts | 27° |
| 2026-04-28 16:10 | 35.24765 | -6.61553 | 36028 ft | 459 kts | 27° |
| 2026-04-28 16:10 | 35.33304 | -6.56240 | 36027 ft | 459 kts | 27° |
| 2026-04-28 16:11 | 35.43776 | -6.49738 | 36027 ft | 459 kts | 27° |
| 2026-04-28 16:12 | 35.52267 | -6.44290 | 36027 ft | 459 kts | 28° |
| 2026-04-28 16:13 | 35.60701 | -6.38723 | 36028 ft | 459 kts | 28° |
| 2026-04-28 16:14 | 35.71983 | -6.31343 | 36027 ft | 459 kts | 28° |
| 2026-04-28 16:15 | 35.83328 | -6.24139 | 36026 ft | 459 kts | 20° |
| 2026-04-28 16:15 | 35.89490 | -6.22135 | 36026 ft | 458 kts | 13° |
| 2026-04-28 16:16 | 35.98800 | -6.19403 | 36025 ft | 458 kts | 13° |
| 2026-04-28 16:17 | 36.08104 | -6.16651 | 36026 ft | 459 kts | 13° |
| 2026-04-28 16:17 | 36.14357 | -6.14806 | 36026 ft | 459 kts | 13° |
| 2026-04-28 16:18 | 36.20564 | -6.12963 | 36027 ft | 459 kts | 13° |
| 2026-04-28 16:18 | 36.26769 | -6.11099 | 36027 ft | 459 kts | 13° |
| 2026-04-28 16:19 | 36.32973 | -6.09241 | 36025 ft | 459 kts | 13° |
| 2026-04-28 16:19 | 36.39179 | -6.07399 | 36026 ft | 459 kts | 13° |
| 2026-04-28 16:20 | 36.45385 | -6.05552 | 36027 ft | 459 kts | 13° |
| 2026-04-28 16:20 | 36.51521 | -6.03737 | 36026 ft | 459 kts | 13° |
| 2026-04-28 16:21 | 36.57714 | -6.01926 | 36026 ft | 459 kts | 13° |
| 2026-04-28 16:21 | 36.63942 | -6.00085 | 36026 ft | 459 kts | 13° |
| 2026-04-28 16:22 | 36.70150 | -5.98227 | 36026 ft | 459 kts | 13° |
| 2026-04-28 16:22 | 36.76353 | -5.96362 | 36025 ft | 459 kts | 13° |
| 2026-04-28 16:23 | 36.82559 | -5.94494 | 36026 ft | 459 kts | 13° |
| 2026-04-28 16:23 | 36.88763 | -5.92627 | 36026 ft | 459 kts | 13° |
| 2026-04-28 16:24 | 36.94972 | -5.90749 | 36027 ft | 459 kts | 13° |
| 2026-04-28 16:24 | 37.01172 | -5.88879 | 36026 ft | 459 kts | 13° |
| 2026-04-28 16:25 | 37.07377 | -5.86995 | 36026 ft | 459 kts | 13° |
| 2026-04-28 16:25 | 37.13621 | -5.85100 | 36027 ft | 459 kts | 13° |
| 2026-04-28 16:26 | 37.19824 | -5.83225 | 36026 ft | 459 kts | 13° |
| 2026-04-28 16:26 | 37.26030 | -5.81348 | 36027 ft | 459 kts | 13° |
| 2026-04-28 16:27 | 37.32229 | -5.79454 | 36026 ft | 459 kts | 13° |
| 2026-04-28 16:28 | 37.41531 | -5.76588 | 36025 ft | 459 kts | 17° |
| 2026-04-28 16:28 | 37.47380 | -5.73429 | 36025 ft | 458 kts | 26° |
| 2026-04-28 16:29 | 37.56009 | -5.68216 | 36024 ft | 459 kts | 25° |
| 2026-04-28 16:30 | 37.64647 | -5.63006 | 36024 ft | 459 kts | 25° |
| 2026-04-28 16:30 | 37.70396 | -5.59502 | 36025 ft | 459 kts | 26° |
| 2026-04-28 16:31 | 37.76141 | -5.55998 | 36024 ft | 459 kts | 26° |
| 2026-04-28 16:31 | 37.81894 | -5.52490 | 36026 ft | 459 kts | 25° |
| 2026-04-28 16:32 | 37.87639 | -5.48984 | 36025 ft | 459 kts | 25° |
| 2026-04-28 16:32 | 37.96267 | -5.43705 | 36025 ft | 459 kts | 26° |
| 2026-04-28 16:33 | 38.01081 | -5.40755 | 36025 ft | 459 kts | 26° |
| 2026-04-28 16:33 | 38.07795 | -5.36632 | 36026 ft | 459 kts | 26° |
| 2026-04-28 16:34 | 38.13506 | -5.33109 | 36026 ft | 459 kts | 26° |
| 2026-04-28 16:34 | 38.19286 | -5.29543 | 36025 ft | 459 kts | 26° |
| 2026-04-28 16:35 | 38.25025 | -5.25998 | 36025 ft | 459 kts | 26° |
| 2026-04-28 16:35 | 38.30762 | -5.22442 | 36026 ft | 459 kts | 26° |
| 2026-04-28 16:36 | 38.36503 | -5.18883 | 36025 ft | 459 kts | 26° |
| 2026-04-28 16:36 | 38.42241 | -5.15316 | 36025 ft | 459 kts | 26° |
| 2026-04-28 16:37 | 38.47980 | -5.11743 | 36025 ft | 459 kts | 26° |
| 2026-04-28 16:38 | 38.56704 | -5.06721 | 36025 ft | 459 kts | 21° |
| 2026-04-28 16:38 | 38.62667 | -5.03821 | 36026 ft | 459 kts | 20° |
| 2026-04-28 16:39 | 38.68629 | -5.00900 | 36025 ft | 459 kts | 21° |
| 2026-04-28 16:39 | 38.74559 | -4.97866 | 36024 ft | 459 kts | 22° |
| 2026-04-28 16:40 | 38.80473 | -4.94793 | 36025 ft | 459 kts | 22° |
| 2026-04-28 16:40 | 38.86396 | -4.91733 | 36024 ft | 459 kts | 21° |
| 2026-04-28 16:41 | 38.92316 | -4.88686 | 36024 ft | 459 kts | 21° |
| 2026-04-28 16:41 | 38.98276 | -4.85613 | 36024 ft | 459 kts | 21° |
| 2026-04-28 16:42 | 39.04201 | -4.82544 | 36025 ft | 459 kts | 22° |
| 2026-04-28 16:42 | 39.10115 | -4.79470 | 36024 ft | 459 kts | 22° |
| 2026-04-28 16:43 | 39.16036 | -4.76391 | 36025 ft | 459 kts | 22° |
| 2026-04-28 16:43 | 39.21950 | -4.73308 | 36024 ft | 459 kts | 22° |
| 2026-04-28 16:44 | 39.26872 | -4.70740 | 36024 ft | 459 kts | 22° |
| 2026-04-28 16:44 | 39.32786 | -4.67650 | 36024 ft | 459 kts | 22° |
| 2026-04-28 16:45 | 39.38702 | -4.64554 | 36024 ft | 459 kts | 22° |
| 2026-04-28 16:45 | 39.44621 | -4.61455 | 36025 ft | 459 kts | 22° |
| 2026-04-28 16:46 | 39.50532 | -4.58353 | 36023 ft | 459 kts | 22° |
| 2026-04-28 16:46 | 39.56450 | -4.55240 | 36023 ft | 459 kts | 22° |
| 2026-04-28 16:47 | 39.62398 | -4.52098 | 36025 ft | 459 kts | 22° |
| 2026-04-28 16:47 | 39.68309 | -4.48977 | 36024 ft | 459 kts | 22° |
| 2026-04-28 16:48 | 39.74218 | -4.45859 | 36023 ft | 459 kts | 22° |
| 2026-04-28 16:48 | 39.80126 | -4.42729 | 36024 ft | 459 kts | 22° |
| 2026-04-28 16:49 | 39.86035 | -4.39581 | 36024 ft | 459 kts | 22° |
| 2026-04-28 16:49 | 39.91941 | -4.36435 | 36023 ft | 459 kts | 22° |
| 2026-04-28 16:50 | 39.97844 | -4.33265 | 36024 ft | 459 kts | 23° |
| 2026-04-28 16:50 | 40.03652 | -4.29821 | 36024 ft | 459 kts | 25° |
| 2026-04-28 16:51 | 40.09404 | -4.26221 | 36024 ft | 459 kts | 25° |
| 2026-04-28 16:51 | 40.15161 | -4.22630 | 36024 ft | 459 kts | 25° |
| 2026-04-28 16:52 | 40.20939 | -4.19086 | 36024 ft | 459 kts | 25° |
| 2026-04-28 16:52 | 40.26726 | -4.15562 | 36023 ft | 459 kts | 25° |
| 2026-04-28 16:53 | 40.32509 | -4.12016 | 36023 ft | 459 kts | 25° |
| 2026-04-28 16:53 | 40.38284 | -4.08464 | 36024 ft | 459 kts | 25° |
| 2026-04-28 16:54 | 40.44100 | -4.04881 | 36024 ft | 459 kts | 25° |
| 2026-04-28 16:54 | 40.49874 | -4.01314 | 36023 ft | 459 kts | 25° |
| 2026-04-28 16:55 | 40.55642 | -3.97740 | 36023 ft | 459 kts | 25° |
| 2026-04-28 16:55 | 40.61414 | -3.94157 | 36024 ft | 459 kts | 25° |
| 2026-04-28 16:56 | 40.67185 | -3.90570 | 36023 ft | 459 kts | 25° |
| 2026-04-28 16:56 | 40.72956 | -3.86984 | 36023 ft | 459 kts | 25° |
| 2026-04-28 16:57 | 40.78727 | -3.83377 | 36023 ft | 459 kts | 25° |
| 2026-04-28 16:57 | 40.84493 | -3.79776 | 36024 ft | 459 kts | 25° |
| 2026-04-28 16:58 | 40.90262 | -3.76168 | 36023 ft | 459 kts | 25° |
| 2026-04-28 16:58 | 40.96021 | -3.72546 | 36024 ft | 459 kts | 25° |
| 2026-04-28 16:59 | 41.01786 | -3.68928 | 36023 ft | 459 kts | 25° |
| 2026-04-28 16:59 | 41.07548 | -3.65297 | 36023 ft | 459 kts | 25° |
| 2026-04-28 17:00 | 41.13345 | -3.61632 | 36022 ft | 459 kts | 25° |
| 2026-04-28 17:00 | 41.19147 | -3.58116 | 36023 ft | 458 kts | 22° |
| 2026-04-28 17:01 | 41.25070 | -3.54951 | 36023 ft | 458 kts | 21° |
| 2026-04-28 17:01 | 41.31008 | -3.51847 | 36023 ft | 458 kts | 21° |
| 2026-04-28 17:02 | 41.36917 | -3.48653 | 36023 ft | 458 kts | 22° |
| 2026-04-28 17:02 | 41.42807 | -3.45407 | 36023 ft | 458 kts | 22° |
| 2026-04-28 17:03 | 41.51654 | -3.40523 | 36023 ft | 458 kts | 22° |
| 2026-04-28 17:03 | 41.57550 | -3.37268 | 36023 ft | 458 kts | 22° |
| 2026-04-28 17:04 | 41.66388 | -3.32378 | 36022 ft | 458 kts | 22° |
| 2026-04-28 17:05 | 41.75236 | -3.27491 | 36022 ft | 458 kts | 22° |
| 2026-04-28 17:06 | 41.84098 | -3.22557 | 36022 ft | 458 kts | 22° |
| 2026-04-28 17:06 | 41.92943 | -3.17622 | 35977 ft | 459 kts | 22° |
| 2026-04-28 17:07 | 41.95891 | -3.15972 | 35720 ft | 458 kts | 22° |
| 2026-04-28 17:07 | 41.98830 | -3.14321 | 35470 ft | 458 kts | 22° |
| 2026-04-28 17:07 | 42.01769 | -3.12667 | 35221 ft | 458 kts | 22° |
| 2026-04-28 17:07 | 42.04719 | -3.11011 | 34971 ft | 459 kts | 22° |
| 2026-04-28 17:08 | 42.07668 | -3.09361 | 34427 ft | 461 kts | 22° |
| 2026-04-28 17:08 | 42.10649 | -3.07692 | 33421 ft | 466 kts | 22° |
| 2026-04-28 17:08 | 42.13651 | -3.06008 | 32414 ft | 469 kts | 22° |
| 2026-04-28 17:08 | 42.16678 | -3.04306 | 31356 ft | 473 kts | 22° |
| 2026-04-28 17:09 | 42.19714 | -3.02593 | 30335 ft | 474 kts | 22° |
| 2026-04-28 17:09 | 42.22772 | -3.00866 | 29241 ft | 477 kts | 22° |
| 2026-04-28 17:09 | 42.25802 | -2.99156 | 28684 ft | 468 kts | 22° |
| 2026-04-28 17:09 | 42.28792 | -2.97470 | 27957 ft | 464 kts | 22° |
| 2026-04-28 17:10 | 42.31760 | -2.95793 | 27257 ft | 459 kts | 22° |
| 2026-04-28 17:10 | 42.34679 | -2.94138 | 26566 ft | 454 kts | 22° |
| 2026-04-28 17:10 | 42.37582 | -2.92489 | 25887 ft | 450 kts | 22° |
| 2026-04-28 17:10 | 42.40456 | -2.90856 | 25227 ft | 445 kts | 22° |
| 2026-04-28 17:11 | 42.43292 | -2.89220 | 24565 ft | 441 kts | 25° |
| 2026-04-28 17:11 | 42.45933 | -2.87153 | 23916 ft | 437 kts | 35° |
| 2026-04-28 17:11 | 42.48275 | -2.84556 | 23256 ft | 433 kts | 42° |
| 2026-04-28 17:11 | 42.50542 | -2.81815 | 22630 ft | 429 kts | 41° |
| 2026-04-28 17:12 | 42.52763 | -2.79136 | 22050 ft | 425 kts | 41° |
| 2026-04-28 17:12 | 42.54964 | -2.76483 | 21481 ft | 421 kts | 41° |
| 2026-04-28 17:12 | 42.57144 | -2.73857 | 20951 ft | 417 kts | 41° |
| 2026-04-28 17:12 | 42.59298 | -2.71262 | 20420 ft | 413 kts | 41° |
| 2026-04-28 17:13 | 42.61434 | -2.68684 | 19916 ft | 409 kts | 41° |
| 2026-04-28 17:13 | 42.63549 | -2.66131 | 19415 ft | 405 kts | 41° |
| 2026-04-28 17:13 | 42.65639 | -2.63604 | 18925 ft | 401 kts | 41° |
| 2026-04-28 17:13 | 42.67713 | -2.61090 | 18417 ft | 398 kts | 41° |
| 2026-04-28 17:14 | 42.69763 | -2.58598 | 17913 ft | 394 kts | 42° |
| 2026-04-28 17:14 | 42.71799 | -2.56122 | 17397 ft | 392 kts | 41° |
| 2026-04-28 17:14 | 42.73827 | -2.53657 | 16878 ft | 389 kts | 41° |
| 2026-04-28 17:14 | 42.75838 | -2.51213 | 16349 ft | 387 kts | 41° |
| 2026-04-28 17:15 | 42.77841 | -2.48778 | 15813 ft | 385 kts | 41° |
| 2026-04-28 17:15 | 42.79829 | -2.46358 | 15275 ft | 383 kts | 41° |
| 2026-04-28 17:15 | 42.81809 | -2.43942 | 14734 ft | 381 kts | 42° |
| 2026-04-28 17:15 | 42.83777 | -2.41540 | 14186 ft | 379 kts | 42° |
| 2026-04-28 17:16 | 42.85077 | -2.39953 | 13825 ft | 377 kts | 42° |
| 2026-04-28 17:16 | 42.87024 | -2.37574 | 13272 ft | 375 kts | 42° |
| 2026-04-28 17:16 | 42.88986 | -2.35174 | 12715 ft | 373 kts | 42° |
| 2026-04-28 17:16 | 42.90883 | -2.32849 | 12162 ft | 370 kts | 42° |
| 2026-04-28 17:17 | 42.92815 | -2.30474 | 11593 ft | 368 kts | 42° |
| 2026-04-28 17:17 | 42.94769 | -2.28245 | 11017 ft | 365 kts | 32° |
| 2026-04-28 17:17 | 42.97107 | -2.27036 | 10584 ft | 357 kts | 7° |
| 2026-04-28 17:17 | 42.99530 | -2.27177 | 10338 ft | 345 kts | 345° |
| 2026-04-28 17:18 | 43.01655 | -2.28511 | 10090 ft | 333 kts | 322° |
| 2026-04-28 17:18 | 43.03294 | -2.30653 | 9905 ft | 320 kts | 313° |
| 2026-04-28 17:18 | 43.04797 | -2.32820 | 9775 ft | 308 kts | 313° |
| 2026-04-28 17:18 | 43.06246 | -2.34903 | 9650 ft | 296 kts | 313° |
| 2026-04-28 17:19 | 43.07651 | -2.36913 | 9337 ft | 292 kts | 313° |
| 2026-04-28 17:19 | 43.09053 | -2.38918 | 8780 ft | 289 kts | 313° |
| 2026-04-28 17:19 | 43.10441 | -2.40907 | 8027 ft | 289 kts | 313° |
| 2026-04-28 17:19 | 43.11827 | -2.42895 | 7381 ft | 285 kts | 313° |
| 2026-04-28 17:20 | 43.13028 | -2.44931 | 7155 ft | 265 kts | 300° |
| 2026-04-28 17:20 | 43.13587 | -2.46360 | 7074 ft | 250 kts | 296° |
| 2026-04-28 17:20 | 43.14606 | -2.49110 | 6932 ft | 240 kts | 296° |
| 2026-04-28 17:20 | 43.15361 | -2.51136 | 6823 ft | 238 kts | 296° |
| 2026-04-28 17:21 | 43.16110 | -2.53147 | 6669 ft | 239 kts | 296° |
| 2026-04-28 17:21 | 43.16867 | -2.55179 | 6315 ft | 239 kts | 296° |
| 2026-04-28 17:21 | 43.17618 | -2.57195 | 5987 ft | 237 kts | 296° |
| 2026-04-28 17:22 | 43.19101 | -2.61207 | 5314 ft | 236 kts | 296° |
| 2026-04-28 17:22 | 43.19846 | -2.63222 | 4963 ft | 237 kts | 296° |
| 2026-04-28 17:22 | 43.20593 | -2.65240 | 4606 ft | 238 kts | 296° |
| 2026-04-28 17:23 | 43.22057 | -2.69196 | 3899 ft | 225 kts | 296° |
| 2026-04-28 17:23 | 43.22753 | -2.71079 | 3563 ft | 218 kts | 296° |
| 2026-04-28 17:23 | 43.23429 | -2.72907 | 3247 ft | 211 kts | 296° |
| 2026-04-28 17:23 | 43.24077 | -2.74664 | 2952 ft | 201 kts | 296° |
| 2026-04-28 17:24 | 43.24695 | -2.76339 | 2638 ft | 192 kts | 296° |
| 2026-04-28 17:24 | 43.25277 | -2.77917 | 2354 ft | 180 kts | 296° |
| 2026-04-28 17:24 | 43.25836 | -2.79432 | 2087 ft | 171 kts | 296° |
| 2026-04-28 17:24 | 43.26347 | -2.80822 | 1851 ft | 156 kts | 296° |
| 2026-04-28 17:25 | 43.26822 | -2.82111 | 1623 ft | 148 kts | 296° |
| 2026-04-28 17:25 | 43.27728 | -2.84570 | 1189 ft | 143 kts | 296° |
| 2026-04-28 17:25 | 43.28176 | -2.85776 | 988 ft | 142 kts | 296° |
| 2026-04-28 17:26 | 43.28622 | -2.86986 | 756 ft | 141 kts | 294° |
| 2026-04-28 17:26 | 43.29057 | -2.88190 | 543 ft | 141 kts | 296° |
| 2026-04-28 17:26 | 43.29495 | -2.89390 | 313 ft | 141 kts | 295° |
| 2026-04-28 17:26 | 43.29932 | -2.90577 | 135 ft | 134 kts | 296° |
| 2026-04-28 17:27 | 43.30292 | -2.91561 | 132 ft | 92 kts | 296° |
| 2026-04-28 17:27 | 43.30503 | -2.92137 | 132 ft | 43 kts | 297° |
| 2026-04-28 17:27 | 43.30594 | -2.92382 | 133 ft | 17 kts | 297° |
| 2026-04-28 17:27 | 43.30689 | -2.92478 | 133 ft | 18 kts | 340° |
| 2026-04-28 17:28 | 43.30778 | -2.92505 | 132 ft | 11 kts | 15° |
| 2026-04-28 17:28 | 43.30774 | -2.92360 | 132 ft | 7 kts | 117° |
| 2026-04-28 17:28 | 43.30753 | -2.92304 | 132 ft | 6 kts | 117° |
| 2026-04-28 17:29 | 43.30734 | -2.92253 | 132 ft | 8 kts | 117° |
| 2026-04-28 17:29 | 43.30688 | -2.92130 | 132 ft | 21 kts | 117° |
| 2026-04-28 17:29 | 43.30609 | -2.91913 | 132 ft | 28 kts | 116° |
| 2026-04-28 17:30 | 43.30423 | -2.91406 | 132 ft | 31 kts | 117° |
| 2026-04-28 17:30 | 43.30312 | -2.91048 | 132 ft | 10 kts | 62° |
| 2026-04-28 17:30 | 43.30363 | -2.91000 | 132 ft | 8 kts | 26° |
| 2026-04-28 17:31 | 43.30407 | -2.90962 | 132 ft | 7 kts | 54° |
| 2026-04-28 17:31 | 43.30413 | -2.90837 | 132 ft | 6 kts | 91° |
| 2026-04-28 17:32 | 43.30393 | -2.90714 | 132 ft | 3 kts | 53° |
| 2026-04-28 17:32 | 43.30411 | -2.90707 | 132 ft | 2 kts | 16° |
| 2026-04-28 17:32 | 43.30429 | -2.90696 | 132 ft | 5 kts | 25° |
| 2026-04-28 17:32 | 43.30446 | -2.90684 | 132 ft | 0 kts | 26° |